createdAt,value
2023-02-09T00:00:13.177Z,4.47
2023-02-09T00:02:40.709Z,6.93
2023-02-09T00:05:09.199Z,6.88
2023-02-09T00:07:36.599Z,4.63
2023-02-09T00:10:05.689Z,5.93
2023-02-09T00:12:50.770Z,4.30
2023-02-09T00:15:17.598Z,5.45
2023-02-09T00:17:44.353Z,3.75
2023-02-09T00:20:11.469Z,4.50
2023-02-09T00:22:38.201Z,5.95
2023-02-09T00:25:05.302Z,6.10
2023-02-09T00:27:35.568Z,4.78
2023-02-09T00:30:02.687Z,4.43
2023-02-09T00:32:33.167Z,2.80
2023-02-09T00:35:00.092Z,6.55
2023-02-09T00:37:26.906Z,4.90
2023-02-09T00:39:53.667Z,5.72
2023-02-09T00:42:20.404Z,6.18
2023-02-09T00:44:47.166Z,7.15
2023-02-09T00:47:13.895Z,4.22
2023-02-09T00:49:40.699Z,3.22
2023-02-09T00:52:09.768Z,2.83
2023-02-09T00:54:36.812Z,4.20
2023-02-09T00:57:05.523Z,3.85
2023-02-09T00:59:34.969Z,4.75
2023-02-09T01:02:02.409Z,5.22
2023-02-09T01:04:29.211Z,7.32
2023-02-09T01:06:56.106Z,3.92
2023-02-09T01:09:22.859Z,7.43
2023-02-09T01:11:49.852Z,6.97
2023-02-09T01:14:17.392Z,7.07
2023-02-09T01:16:44.274Z,4.10
2023-02-09T01:19:13.666Z,4.72
2023-02-09T01:21:41.114Z,4.28
2023-02-09T01:24:12.968Z,2.95
2023-02-09T01:26:39.752Z,4.13
2023-02-09T01:29:06.780Z,3.83
2023-02-09T01:31:35.942Z,3.53
2023-02-09T01:34:04.602Z,2.53
2023-02-09T01:36:33.036Z,4.80
2023-02-09T01:39:02.570Z,3.83
2023-02-09T01:41:29.995Z,4.47
2023-02-09T01:44:03.988Z,4.93
2023-02-09T01:46:35.648Z,3.83
2023-02-09T01:49:10.086Z,3.70
2023-02-09T01:51:42.772Z,4.22
2023-02-09T01:54:19.348Z,3.88
2023-02-09T01:56:51.425Z,4.55
2023-02-09T01:59:19.535Z,5.47
2023-02-09T02:01:46.358Z,3.40
2023-02-09T02:04:13.422Z,3.58
2023-02-09T02:06:40.955Z,2.50
2023-02-09T02:09:14.260Z,3.95
2023-02-09T02:11:45.258Z,2.92
2023-02-09T02:14:37.402Z,5.38
2023-02-09T02:17:17.751Z,5.50
2023-02-09T02:22:48.365Z,3.25
2023-02-09T02:25:38.139Z,4.07
2023-02-09T02:28:26.323Z,6.50
2023-02-09T02:31:34.145Z,3.72
2023-02-09T02:34:12.753Z,3.25
2023-02-09T02:36:47.464Z,4.57
2023-02-09T02:39:26.726Z,3.97
2023-02-09T02:42:21.944Z,4.35
2023-02-09T02:45:04.629Z,6.30
2023-02-09T02:47:35.017Z,5.97
2023-02-09T02:50:14.310Z,5.93
2023-02-09T02:52:46.030Z,2.88
2023-02-09T02:55:17.554Z,3.42
2023-02-09T02:57:50.523Z,4.25
2023-02-09T03:00:26.915Z,4.22
2023-02-09T03:02:59.016Z,4.15
2023-02-09T03:05:27.470Z,2.78
2023-02-09T03:07:54.257Z,6.32
2023-02-09T03:10:41.131Z,5.88
2023-02-09T03:13:21.373Z,4.97
2023-02-09T03:16:21.021Z,4.43
2023-02-09T03:19:03.859Z,4.25
2023-02-09T03:22:02.604Z,3.90
2023-02-09T03:24:32.184Z,4.07
2023-02-09T03:27:18.904Z,3.10
2023-02-09T03:29:50.129Z,2.67
2023-02-09T03:32:18.990Z,3.92
2023-02-09T03:34:46.048Z,4.97
2023-02-09T03:37:13.020Z,4.05
2023-02-09T03:39:39.992Z,4.45
2023-02-09T03:42:07.124Z,4.43
2023-02-09T03:44:33.852Z,5.55
2023-02-09T03:47:05.138Z,4.60
2023-02-09T03:49:40.766Z,3.70
2023-02-09T03:52:12.281Z,3.42
2023-02-09T03:54:39.564Z,4.43
2023-02-09T03:57:08.404Z,4.15
2023-02-09T03:59:38.296Z,4.20
2023-02-09T04:02:08.174Z,4.63
2023-02-09T04:04:35.596Z,5.13
2023-02-09T04:07:02.879Z,4.65
2023-02-09T04:09:29.836Z,4.47
2023-02-09T04:11:56.756Z,5.55
2023-02-09T04:14:23.559Z,3.53
2023-02-09T04:16:50.266Z,4.50
2023-02-09T04:19:17.297Z,5.05
2023-02-09T04:21:44.219Z,4.75
2023-02-09T04:24:11.052Z,4.90
2023-02-09T04:26:37.899Z,5.78
2023-02-09T04:29:04.901Z,6.20
2023-02-09T04:31:32.260Z,5.80
2023-02-09T04:33:59.079Z,5.70
2023-02-09T04:36:25.879Z,6.22
2023-02-09T04:38:52.674Z,4.30
2023-02-09T04:41:19.449Z,4.47
2023-02-09T04:43:46.901Z,3.88
2023-02-09T04:46:16.197Z,3.90
2023-02-09T04:48:43.870Z,5.85
2023-02-09T04:51:11.020Z,4.78
2023-02-09T04:53:37.793Z,6.88
2023-02-09T04:56:05.401Z,4.63
2023-02-09T04:58:50.695Z,3.65
2023-02-09T05:01:24.303Z,5.18
2023-02-09T05:03:52.302Z,4.43
2023-02-09T05:06:19.487Z,3.80
2023-02-09T05:08:46.972Z,5.00
2023-02-09T05:11:13.728Z,5.72
2023-02-09T05:13:40.514Z,5.00
2023-02-09T05:16:11.769Z,5.78
2023-02-09T05:18:38.529Z,5.93
2023-02-09T05:21:05.801Z,5.00
2023-02-09T05:23:32.551Z,5.13
2023-02-09T05:25:59.295Z,4.70
2023-02-09T05:28:26.337Z,6.53
2023-02-09T05:30:54.280Z,4.82
2023-02-09T05:33:23.953Z,5.00
2023-02-09T05:35:52.565Z,4.18
2023-02-09T05:38:19.841Z,4.05
2023-02-09T05:40:47.003Z,4.40
2023-02-09T05:43:15.029Z,5.80
2023-02-09T05:45:41.848Z,3.35
2023-02-09T05:48:08.613Z,5.43
2023-02-09T05:50:36.103Z,5.35
2023-02-09T05:53:03.169Z,5.97
2023-02-09T05:55:30.068Z,6.15
2023-02-09T05:57:56.993Z,6.20
2023-02-09T06:00:25.243Z,4.53
2023-02-09T06:02:52.140Z,6.68
2023-02-09T06:05:21.174Z,4.32
2023-02-09T06:07:48.907Z,7.00
2023-02-09T06:10:19.599Z,5.07
2023-02-09T06:12:46.392Z,6.55
2023-02-09T06:15:16.279Z,5.22
2023-02-09T06:17:43.293Z,4.47
2023-02-09T06:20:11.176Z,6.07
2023-02-09T06:22:37.945Z,5.90
2023-02-09T06:25:05.056Z,7.32
2023-02-09T06:27:31.809Z,4.63
2023-02-09T06:29:58.560Z,7.03
2023-02-09T06:32:25.284Z,6.18
2023-02-09T06:34:52.086Z,5.88
2023-02-09T06:37:18.827Z,5.75
2023-02-09T06:39:45.618Z,6.30
2023-02-09T06:42:12.362Z,5.03
2023-02-09T06:44:39.110Z,7.15
2023-02-09T06:47:05.867Z,5.75
2023-02-09T06:49:32.849Z,6.88
2023-02-09T06:51:59.773Z,6.28
2023-02-09T06:54:28.444Z,6.18
2023-02-09T06:56:55.719Z,4.85
2023-02-09T06:59:22.559Z,6.80
2023-02-09T07:01:54.754Z,6.95
2023-02-09T07:04:22.322Z,5.50
2023-02-09T07:06:49.146Z,5.82
2023-02-09T07:09:15.898Z,4.28
2023-02-09T07:11:42.783Z,6.43
2023-02-09T07:14:09.517Z,5.78
2023-02-09T07:16:36.239Z,5.70
2023-02-09T07:19:03.007Z,6.75
2023-02-09T07:21:29.835Z,6.03
2023-02-09T07:23:56.576Z,9.13
2023-02-09T07:26:23.321Z,8.32
2023-02-09T07:28:50.081Z,7.75
2023-02-09T07:31:17.750Z,6.80
2023-02-09T07:33:44.929Z,5.88
2023-02-09T07:36:14.493Z,4.88
2023-02-09T07:38:41.741Z,6.63
2023-02-09T07:41:16.289Z,6.82
2023-02-09T07:43:43.205Z,8.80
2023-02-09T07:46:11.943Z,8.90
2023-02-09T07:48:38.728Z,8.00
2023-02-09T07:51:05.880Z,11.55
2023-02-09T07:53:33.495Z,10.82
2023-02-09T07:56:00.430Z,10.00
2023-02-09T07:58:27.220Z,8.98
2023-02-09T08:00:54.007Z,7.78
2023-02-09T08:03:23.747Z,10.35
2023-02-09T08:06:08.649Z,7.18
2023-02-09T08:08:35.357Z,10.27
2023-02-09T08:11:04.348Z,7.25
2023-02-09T08:13:37.201Z,7.85
2023-02-09T08:16:08.939Z,8.30
2023-02-09T08:18:49.153Z,7.88
2023-02-09T08:21:17.759Z,5.72
2023-02-09T08:23:47.767Z,7.78
2023-02-09T08:26:15.362Z,7.20
2023-02-09T08:28:45.856Z,10.45
2023-02-09T08:31:19.281Z,9.00
2023-02-09T08:33:48.325Z,10.15
2023-02-09T08:36:16.898Z,5.78
2023-02-09T08:38:44.421Z,9.80
2023-02-09T08:41:13.713Z,9.25
2023-02-09T08:43:40.834Z,8.68
2023-02-09T08:46:12.500Z,8.40
2023-02-09T08:48:43.181Z,9.50
2023-02-09T08:51:12.284Z,11.80
2023-02-09T08:53:39.583Z,11.93
2023-02-09T08:56:06.939Z,13.00
2023-02-09T08:58:33.675Z,12.55
2023-02-09T09:01:00.868Z,14.23
2023-02-09T09:03:31.642Z,13.40
2023-02-09T09:06:00.857Z,10.77
2023-02-09T09:08:28.371Z,11.05
2023-02-09T09:10:55.521Z,11.60
2023-02-09T09:13:26.596Z,13.38
2023-02-09T09:15:57.484Z,11.90
2023-02-09T09:18:25.941Z,16.08
2023-02-09T09:20:53.146Z,12.90
2023-02-09T09:23:21.293Z,13.57
2023-02-09T09:25:48.617Z,11.80
2023-02-09T09:28:16.001Z,12.40
2023-02-09T09:30:43.063Z,14.43
2023-02-09T09:33:09.907Z,14.10
2023-02-09T09:35:36.810Z,17.60
2023-02-09T09:38:03.595Z,17.02
2023-02-09T09:40:35.701Z,17.42
2023-02-09T09:43:06.177Z,15.98
2023-02-09T09:45:38.384Z,14.93
2023-02-09T09:48:07.561Z,15.30
2023-02-09T09:50:42.129Z,15.73
2023-02-09T09:53:31.832Z,16.77
2023-02-09T09:56:02.859Z,15.40
2023-02-09T09:58:30.979Z,14.70
2023-02-09T10:00:57.903Z,16.08
2023-02-09T10:03:25.591Z,16.25
2023-02-09T10:05:56.748Z,14.40
2023-02-09T10:08:39.639Z,15.07
2023-02-09T10:13:44.635Z,14.25
2023-02-09T10:16:19.399Z,17.45
2023-02-09T10:18:57.436Z,18.40
2023-02-09T10:21:28.508Z,16.83
2023-02-09T10:24:01.375Z,16.35
2023-02-09T10:26:34.899Z,17.10
2023-02-09T10:29:24.993Z,19.02
2023-02-09T10:32:05.281Z,17.70
2023-02-09T10:34:44.492Z,13.70
2023-02-09T10:37:36.161Z,15.98
2023-02-09T10:40:26.752Z,15.73
2023-02-09T10:42:59.501Z,16.58
2023-02-09T10:48:19.284Z,15.43
2023-02-09T10:50:59.029Z,16.95
2023-02-09T10:53:31.732Z,15.57
2023-02-09T10:56:05.799Z,17.23
2023-02-09T10:58:36.596Z,14.32
2023-02-09T11:01:09.146Z,15.93
2023-02-09T11:03:46.486Z,15.05
2023-02-09T11:06:19.492Z,18.00
2023-02-09T11:08:52.680Z,16.15
2023-02-09T11:11:37.085Z,16.15
2023-02-09T11:14:10.457Z,14.93
2023-02-09T11:16:55.823Z,15.07
2023-02-09T11:19:58.771Z,16.75
2023-02-09T11:22:49.769Z,15.77
2023-02-09T11:25:26.705Z,15.73
2023-02-09T11:28:35.491Z,16.92
2023-02-09T11:31:46.561Z,15.73
2023-02-09T11:35:01.127Z,15.95
2023-02-09T11:37:54.309Z,15.50
2023-02-09T11:40:43.289Z,15.55
2023-02-09T11:43:19.278Z,13.13
2023-02-09T11:45:48.529Z,16.70
2023-02-09T11:48:18.147Z,16.50
2023-02-09T11:51:10.321Z,15.30
2023-02-09T11:53:54.093Z,16.95
2023-02-09T11:56:24.127Z,16.13
2023-02-09T11:59:15.581Z,17.52
2023-02-09T12:02:07.667Z,15.32
2023-02-09T12:05:02.821Z,15.50
2023-02-09T12:07:49.220Z,16.58
2023-02-09T12:10:36.341Z,14.57
2023-02-09T12:13:34.088Z,14.45
2023-02-09T12:16:07.468Z,14.90
2023-02-09T12:18:35.553Z,14.55
2023-02-09T12:21:06.379Z,16.17
2023-02-09T12:23:39.057Z,13.20
2023-02-09T12:26:12.003Z,10.57
2023-02-09T12:28:43.906Z,7.70
2023-02-09T12:31:23.863Z,8.90
2023-02-09T12:33:59.851Z,7.88
2023-02-09T12:36:35.563Z,8.43
2023-02-09T12:39:23.847Z,7.50
2023-02-09T12:41:50.719Z,7.20
2023-02-09T12:44:18.437Z,7.28
2023-02-09T12:46:45.251Z,6.07
2023-02-09T12:49:11.951Z,6.55
2023-02-09T12:51:50.788Z,6.90
2023-02-09T12:54:50.022Z,7.03
2023-02-09T12:57:16.844Z,7.68
2023-02-09T12:59:52.478Z,6.80
2023-02-09T13:02:27.485Z,6.38
2023-02-09T13:05:06.373Z,6.90
2023-02-09T13:07:33.037Z,8.95
2023-02-09T13:10:20.364Z,11.57
2023-02-09T13:12:58.894Z,10.32
2023-02-09T13:15:29.444Z,13.25
2023-02-09T13:17:59.336Z,11.30
2023-02-09T13:20:45.895Z,9.52
2023-02-09T13:24:06.846Z,8.18
2023-02-09T13:26:36.691Z,8.20
2023-02-09T13:29:20.906Z,7.30
2023-02-09T13:32:29.020Z,7.97
2023-02-09T13:35:01.691Z,9.02
2023-02-09T13:37:47.788Z,9.20
2023-02-09T13:40:26.060Z,9.13
2023-02-09T13:43:10.880Z,12.98
2023-02-09T13:45:49.066Z,13.98
2023-02-09T13:48:27.466Z,15.32
2023-02-09T13:50:56.710Z,15.88
2023-02-09T13:53:27.169Z,15.27
2023-02-09T13:55:56.537Z,16.75
2023-02-09T13:58:31.164Z,15.70
2023-02-09T14:01:06.420Z,15.27
2023-02-09T14:03:56.765Z,17.65
2023-02-09T14:06:55.249Z,17.60
2023-02-09T14:09:30.195Z,16.33
2023-02-09T14:12:09.686Z,16.75
2023-02-09T14:15:14.493Z,16.13
2023-02-09T14:20:21.445Z,17.17
2023-02-09T14:23:01.014Z,18.52
2023-02-09T14:25:30.950Z,17.17
2023-02-09T14:27:58.439Z,16.67
2023-02-09T14:30:32.125Z,17.77
2023-02-09T14:33:03.466Z,16.20
2023-02-09T14:35:40.093Z,16.98
2023-02-09T14:38:37.156Z,18.52
2023-02-09T14:41:22.545Z,16.88
2023-02-09T14:44:22.347Z,17.00
2023-02-09T14:46:58.294Z,16.95
2023-02-09T14:49:26.436Z,18.90
2023-02-09T14:52:04.542Z,18.23
2023-02-09T14:54:35.036Z,17.15
2023-02-09T14:57:03.788Z,18.52
2023-02-09T14:59:30.904Z,19.20
2023-02-09T15:01:57.747Z,17.83
2023-02-09T15:04:24.514Z,15.50
2023-02-09T15:07:00.948Z,18.92
2023-02-09T15:09:36.166Z,17.45
2023-02-09T15:12:05.738Z,18.55
2023-02-09T15:14:45.004Z,17.67
2023-02-09T15:17:23.732Z,15.75
2023-02-09T15:19:50.485Z,15.70
2023-02-09T15:22:18.433Z,17.40
2023-02-09T15:24:48.413Z,16.50
2023-02-09T15:27:33.932Z,17.15
2023-02-09T15:30:04.331Z,17.98
2023-02-09T15:32:31.673Z,15.77
2023-02-09T15:34:58.451Z,15.98
2023-02-09T15:37:36.351Z,16.88
2023-02-09T15:40:14.080Z,17.88
2023-02-09T15:45:48.475Z,24.48
2023-02-09T15:48:15.505Z,26.13
2023-02-09T15:50:47.990Z,21.90
2023-02-09T15:53:18.899Z,17.50
2023-02-09T15:55:46.770Z,19.13
2023-02-09T15:58:21.807Z,20.50
2023-02-09T16:00:48.675Z,18.00
2023-02-09T16:03:18.892Z,20.17
2023-02-09T16:05:48.764Z,16.10
2023-02-09T16:08:23.836Z,20.17
2023-02-09T16:10:51.509Z,19.63
2023-02-09T16:13:20.031Z,18.23
2023-02-09T16:15:48.489Z,18.40
2023-02-09T16:18:15.673Z,19.77
2023-02-09T16:20:50.324Z,22.50
2023-02-09T16:23:24.074Z,45.65
2023-02-09T16:25:53.224Z,37.75
2023-02-09T16:28:21.757Z,33.42
2023-02-09T16:30:57.989Z,18.42
2023-02-09T16:33:25.826Z,19.23
2023-02-09T16:36:00.199Z,17.50
2023-02-09T16:38:28.526Z,22.50
2023-02-09T16:40:56.408Z,19.63
2023-02-09T16:43:23.909Z,21.60
2023-02-09T16:46:02.948Z,17.05
2023-02-09T16:48:32.483Z,17.88
2023-02-09T16:50:59.722Z,19.10
2023-02-09T16:53:35.037Z,17.75
2023-02-09T16:56:10.409Z,14.10
2023-02-09T16:58:38.375Z,17.38
2023-02-09T17:01:22.304Z,17.40
2023-02-09T17:03:53.025Z,17.25
2023-02-09T17:06:27.161Z,16.92
2023-02-09T17:08:56.621Z,15.75
2023-02-09T17:11:54.363Z,15.13
2023-02-09T17:14:21.107Z,15.15
2023-02-09T17:16:49.897Z,15.10
2023-02-09T17:19:18.317Z,19.10
2023-02-09T17:21:45.331Z,14.88
2023-02-09T17:24:17.530Z,14.93
2023-02-09T17:26:44.809Z,15.38
2023-02-09T17:29:12.212Z,14.90
2023-02-09T17:31:52.723Z,15.70
2023-02-09T17:34:22.070Z,17.05
2023-02-09T17:36:48.788Z,13.63
2023-02-09T17:39:16.864Z,18.10
2023-02-09T17:41:46.538Z,18.48
2023-02-09T17:44:35.239Z,15.85
2023-02-09T17:47:06.347Z,16.95
2023-02-09T17:49:33.383Z,16.98
2023-02-09T17:52:00.164Z,16.38
2023-02-09T17:54:27.956Z,14.23
2023-02-09T17:56:54.748Z,13.48
2023-02-09T17:59:21.649Z,13.43
2023-02-09T18:01:55.253Z,13.82
2023-02-09T18:04:26.916Z,12.93
2023-02-09T18:06:54.332Z,14.13
2023-02-09T18:09:21.878Z,13.73
2023-02-09T18:11:51.418Z,16.80
2023-02-09T18:14:21.236Z,14.80
2023-02-09T18:16:48.406Z,15.68
2023-02-09T18:19:18.820Z,14.52
2023-02-09T18:22:04.186Z,12.10
2023-02-09T18:24:34.402Z,14.48
2023-02-09T18:27:01.366Z,9.98
2023-02-09T18:29:30.819Z,12.15
2023-02-09T18:32:02.480Z,11.40
2023-02-09T18:34:30.227Z,10.77
2023-02-09T18:36:57.140Z,11.43
2023-02-09T18:39:24.061Z,12.07
2023-02-09T18:41:57.120Z,11.40
2023-02-09T18:44:29.038Z,11.77
2023-02-09T18:46:57.833Z,12.23
2023-02-09T18:49:24.668Z,13.30
2023-02-09T18:51:52.334Z,13.57
2023-02-09T18:54:19.377Z,11.93
2023-02-09T18:56:46.136Z,11.27
2023-02-09T18:59:13.009Z,10.38
2023-02-09T19:01:40.699Z,12.55
2023-02-09T19:04:08.139Z,11.18
2023-02-09T19:06:37.940Z,10.85
2023-02-09T19:09:04.730Z,10.65
2023-02-09T19:11:31.516Z,13.77
2023-02-09T19:14:36.724Z,11.48
2023-02-09T19:17:09.437Z,11.63
2023-02-09T19:19:36.235Z,15.32
2023-02-09T19:22:02.941Z,11.18
2023-02-09T19:24:29.755Z,14.45
2023-02-09T19:26:56.881Z,14.70
2023-02-09T19:29:25.799Z,14.18
2023-02-09T19:31:53.396Z,14.30
2023-02-09T19:34:20.124Z,11.52
2023-02-09T19:36:46.864Z,12.00
2023-02-09T19:39:13.641Z,14.07
2023-02-09T19:41:40.551Z,12.52
2023-02-09T19:44:07.361Z,12.02
2023-02-09T19:46:34.217Z,11.30
2023-02-09T19:49:02.169Z,10.38
2023-02-09T19:51:28.981Z,11.80
2023-02-09T19:53:55.755Z,14.38
2023-02-09T19:56:23.654Z,12.85
2023-02-09T19:58:51.536Z,13.98
2023-02-09T20:01:19.182Z,12.10
2023-02-09T20:03:46.276Z,11.50
2023-02-09T20:06:14.458Z,12.98
2023-02-09T20:08:41.282Z,14.85
2023-02-09T20:11:13.899Z,18.25
2023-02-09T20:16:18.055Z,9.27
2023-02-09T20:18:48.016Z,10.73
2023-02-09T20:21:20.453Z,15.10
2023-02-09T20:26:18.476Z,14.77
2023-02-09T20:28:45.208Z,13.82
2023-02-09T20:31:12.980Z,12.85
2023-02-09T20:33:41.369Z,11.45
2023-02-09T20:36:09.936Z,11.68
2023-02-09T20:38:37.476Z,10.95
2023-02-09T20:41:13.808Z,12.07
2023-02-09T20:44:03.209Z,9.43
2023-02-09T20:46:51.561Z,10.38
2023-02-09T20:49:19.152Z,10.07
2023-02-09T20:51:46.720Z,9.73
2023-02-09T20:54:14.041Z,10.10
2023-02-09T20:56:41.885Z,10.57
2023-02-09T20:59:08.976Z,10.95
2023-02-09T21:01:39.869Z,11.15
2023-02-09T21:04:07.551Z,8.90
2023-02-09T21:06:40.064Z,9.60
2023-02-09T21:11:35.255Z,8.10
2023-02-09T21:14:02.490Z,7.97
2023-02-09T21:16:31.019Z,8.75
2023-02-09T21:18:59.116Z,8.65
2023-02-09T21:21:27.193Z,9.25
2023-02-09T21:23:54.406Z,10.52
2023-02-09T21:26:22.854Z,10.75
2023-02-09T21:28:51.479Z,8.77
2023-02-09T21:31:22.413Z,8.77
2023-02-09T21:33:49.139Z,7.55
2023-02-09T21:36:15.975Z,8.13
2023-02-09T21:38:42.792Z,7.15
2023-02-09T21:41:44.080Z,10.88
2023-02-09T21:44:12.618Z,9.55
2023-02-09T21:46:39.421Z,8.80
2023-02-09T21:49:06.423Z,10.05
2023-02-09T21:51:33.654Z,8.20
2023-02-09T21:54:00.446Z,9.05
2023-02-09T21:56:27.218Z,7.00
2023-02-09T21:58:53.960Z,7.60
2023-02-09T22:01:20.745Z,10.20
2023-02-09T22:03:57.400Z,8.73
2023-02-09T22:06:25.836Z,8.70
2023-02-09T22:08:52.940Z,7.15
2023-02-09T22:11:19.681Z,7.32
2023-02-09T22:13:46.413Z,8.85
2023-02-09T22:16:20.665Z,6.93
2023-02-09T22:18:47.650Z,5.72
2023-02-09T22:21:14.462Z,6.30
2023-02-09T22:23:41.262Z,5.35
2023-02-09T22:26:08.263Z,7.40
2023-02-09T22:28:36.531Z,6.70
2023-02-09T22:31:22.333Z,5.53
2023-02-09T22:33:54.105Z,7.70
2023-02-09T22:36:22.063Z,6.00
2023-02-09T22:38:48.915Z,5.75
2023-02-09T22:41:22.429Z,5.53
2023-02-09T22:43:53.793Z,7.50
2023-02-09T22:46:28.924Z,8.38
2023-02-09T22:49:01.951Z,9.20
2023-02-09T22:51:30.630Z,8.05
2023-02-09T22:53:58.572Z,9.48
2023-02-09T22:56:26.570Z,6.47
2023-02-09T22:58:54.797Z,5.95
2023-02-09T23:01:22.498Z,5.45
2023-02-09T23:03:50.188Z,6.22
2023-02-09T23:06:21.380Z,7.97
2023-02-09T23:08:48.183Z,7.18
2023-02-09T23:11:17.369Z,6.95
2023-02-09T23:13:44.899Z,6.28
2023-02-09T23:16:27.368Z,6.60
2023-02-09T23:19:04.441Z,7.43
2023-02-09T23:21:37.883Z,5.43
2023-02-09T23:24:05.462Z,6.57
2023-02-09T23:26:32.837Z,6.13
2023-02-09T23:29:03.759Z,5.63
2023-02-09T23:31:30.926Z,5.75
2023-02-09T23:33:57.988Z,6.72
2023-02-09T23:36:28.102Z,7.40
2023-02-09T23:38:57.860Z,5.55
2023-02-09T23:41:25.947Z,4.32
2023-02-09T23:43:53.540Z,5.90
2023-02-09T23:46:26.725Z,6.57
2023-02-09T23:48:56.403Z,4.80
2023-02-09T23:51:33.385Z,5.95
2023-02-09T23:54:04.466Z,4.47
2023-02-09T23:56:37.029Z,6.32
2023-02-09T23:59:06.721Z,5.40
